Time;durP1;ratioP1;P1;durP2;ratioP2;P2;SDS_P1;SDS_P2;PMS_P1;PMS_P2;Temp;Humidity;BMP_temperature;BMP_pressure;BME280_temperature;BME280_humidity;BME280_pressure;Samples;Min_cycle;Max_cycle;Signal;HPM_P1;HPM_P2
2021/12/27 00:01:53;;;;;;;;;;;;;;;-8.79;72.05;100553.38;740633;1154;114372;-73
2021/12/27 00:16:55;;;;;;;240.23;64.28;;;;;;;-8.98;72.13;100562.80;740080;1153;100598;-74
2021/12/27 00:31:58;;;;;;;231.00;59.50;;;;;;;-9.08;71.61;100553.50;740317;1153;114364;-73
2021/12/27 00:47:01;;;;;;;121.80;34.70;;;;;;;-9.11;71.61;100572.14;740520;1159;115508;-74
2021/12/27 01:02:03;;;;;;;137.63;39.73;;;;;;;-9.39;71.35;100568.83;740022;1159;114368;-75
2021/12/27 01:17:05;;;;;;;187.83;49.40;;;;;;;-9.41;71.57;100567.97;740718;1154;114423;-74
2021/12/27 01:32:08;;;;;;;192.53;49.60;;;;;;;-9.26;71.64;100578.12;739979;1154;114290;-76
2021/12/27 01:47:10;;;;;;;189.38;47.03;;;;;;;-9.56;71.16;100574.77;740846;1154;114039;-75
2021/12/27 02:02:12;;;;;;;235.97;58.90;;;;;;;-9.74;71.05;100579.84;740105;1154;115255;-75
2021/12/27 02:17:19;;;;;;;216.05;56.15;;;;;;;-9.73;70.62;100573.93;740603;1155;113972;-75
2021/12/27 02:32:21;;;;;;;98.93;30.13;;;;;;;-9.91;70.90;100575.63;739872;1159;114147;-75
2021/12/27 02:47:23;;;;;;;;;;;;;;;-9.97;70.80;100564.63;739888;1159;114470;-75
2021/12/27 03:02:25;;;;;;;116.25;34.13;;;;;;;-10.20;70.49;100565.41;739949;1159;99724;-75
2021/12/27 03:17:27;;;;;;;96.70;27.15;;;;;;;-10.13;70.27;100578.99;740150;1159;114615;-76
2021/12/27 03:32:31;;;;;;;118.25;39.05;;;;;;;-10.49;69.87;100588.22;739862;1154;114987;-74
2021/12/27 03:47:34;;;;;;;136.17;37.67;;;;;;;-10.41;70.52;100571.33;739744;1154;114145;-74
2021/12/27 04:02:37;;;;;;;184.10;50.75;;;;;;;-10.51;70.02;100589.92;739710;1154;115621;-74
2021/12/27 04:17:40;;;;;;;134.10;39.40;;;;;;;-10.67;69.78;100579.72;740726;1159;114932;-75
2021/12/27 04:32:42;;;;;;;149.37;45.93;;;;;;;-10.69;69.89;100583.09;740248;1154;114129;-76
2021/12/27 04:47:44;;;;;;;314.05;65.70;;;;;;;-10.68;70.17;100582.25;740707;1154;114102;-75
2021/12/27 05:02:47;;;;;;;169.33;48.43;;;;;;;-10.50;70.31;100561.16;740752;1159;114371;-75
2021/12/27 05:17:49;;;;;;;253.90;73.40;;;;;;;-10.57;69.95;100567.91;741088;1155;114788;-75
2021/12/27 05:32:51;;;;;;;245.70;63.27;;;;;;;-10.83;70.02;100570.34;740923;1154;114101;-74
2021/12/27 05:47:55;;;;;;;273.90;72.50;;;;;;;-10.91;69.61;100560.19;740130;1154;114436;-75
2021/12/27 06:02:57;;;;;;;265.55;66.85;;;;;;;-11.01;69.82;100561.82;741459;1154;114482;-73
2021/12/27 06:18:00;;;;;;;295.45;79.60;;;;;;;-10.93;69.60;100550.02;741070;1154;115638;-72
2021/12/27 06:33:03;;;;;;;288.85;74.65;;;;;;;-11.18;69.53;100555.83;740876;1159;114781;-72
2021/12/27 06:48:05;;;;;;;278.25;79.80;;;;;;;-11.17;69.41;100565.13;740144;1155;114089;-72
2021/12/27 07:03:07;;;;;;;256.35;65.75;;;;;;;-10.86;69.86;100561.03;741263;1154;113959;-72
2021/12/27 07:18:10;;;;;;;692.10;211.50;;;;;;;-10.90;69.91;100569.47;741120;1159;115579;-80
2021/12/27 07:33:12;;;;;;;603.85;190.00;;;;;;;-10.66;70.30;100570.41;740872;1159;114909;-72
2021/12/27 07:48:14;;;;;;;417.70;115.20;;;;;;;-10.55;70.31;100582.28;742579;1159;114379;-72
2021/12/27 08:03:21;;;;;;;450.90;123.00;;;;;;;-10.27;70.52;100602.63;741934;1159;114149;-75
2021/12/27 08:18:23;;;;;;;428.07;117.03;;;;;;;-9.72;70.97;100614.56;741315;1159;114311;-74
2021/12/27 08:33:25;;;;;;;476.20;143.83;;;;;;;-8.60;71.59;100606.76;741123;1154;114123;-76
2021/12/27 08:48:27;;;;;;;432.90;131.05;;;;;;;-7.01;72.16;100595.36;741630;1159;115745;-75
2021/12/27 09:03:30;;;;;;;413.77;119.10;;;;;;;-5.75;72.50;100595.39;741187;1154;114963;-81
2021/12/27 09:18:33;;;;;;;275.75;81.28;;;;;;;-4.25;71.70;100584.94;741280;1154;114595;-82
2021/12/27 10:36:30;;;;;;;389.53;106.83;;;;;;;-0.37;68.36;100541.63;715625;1185;23117;-73
2021/12/27 10:51:33;;;;;;;378.30;115.03;;;;;;;-0.31;66.42;100525.94;714451;1198;113787;-74
2021/12/27 11:06:40;;;;;;;235.53;83.05;;;;;;;0.20;67.54;100516.18;714410;1199;114087;-73
2021/12/27 11:21:45;;;;;;;81.10;31.93;;;;;;;0.69;65.96;100512.41;714480;1199;114020;-74
2021/12/27 11:36:56;;;;;;;116.93;42.00;;;;;;;1.03;65.35;100513.52;714602;1178;113496;-73
2021/12/27 11:52:15;;;;;;;285.60;94.98;;;;;;;1.23;64.49;100491.94;714446;1202;114581;-74
2021/12/27 12:07:51;;;;;;;131.03;44.78;;;;;;;1.56;63.93;100483.52;714331;1177;113613;-74
2021/12/27 12:23:20;;;;;;;164.17;58.10;;;;;;;1.61;63.52;100479.83;714367;1180;113991;-80
2021/12/27 12:38:35;;;;;;;205.13;69.23;;;;;;;1.93;62.34;100466.25;714627;1177;113509;-74
2021/12/27 12:53:38;;;;;;;667.20;199.75;;;;;;;3.12;61.89;100444.61;715091;1200;114663;-87
2021/12/27 13:08:51;;;;;;;296.83;78.75;;;;;;;6.64;58.50;100448.27;715491;1177;114597;-74
2021/12/27 13:23:53;;;;;;;286.60;82.10;;;;;;;6.80;56.24;100427.99;714657;1199;113894;-81
2021/12/27 13:39:17;;;;;;;176.55;59.95;;;;;;;4.57;54.60;100432.91;716217;1200;114628;-82
2021/12/27 13:54:20;;;;;;;292.17;95.60;;;;;;;-0.42;55.70;100427.53;715536;1199;115375;-76
2021/12/27 14:09:32;;;;;;;415.10;115.55;;;;;;;-1.90;57.94;100421.82;714529;1199;114880;-74
2021/12/27 14:24:45;;;;;;;258.77;71.33;;;;;;;-2.64;59.11;100424.22;714666;1199;115681;-73
2021/12/27 14:39:49;;;;;;;489.53;129.68;;;;;;;-3.40;60.17;100397.38;714781;1203;114485;-81
2021/12/27 14:54:51;;;;;;;385.68;84.90;;;;;;;-3.74;60.57;100405.98;714158;1199;114729;-75
2021/12/27 15:09:58;;;;;;;325.97;75.20;;;;;;;-4.20;61.86;100405.45;714219;1200;113872;-74
2021/12/27 15:25:01;;;;;;;199.13;54.08;;;;;;;-4.56;63.12;100408.87;714483;1188;115415;-78
2021/12/27 15:40:06;;;;;;;172.85;45.35;;;;;;;-4.78;62.97;100408.52;718925;1176;114080;-79
2021/12/27 15:55:11;;;;;;;292.78;71.98;;;;;;;-5.10;63.60;100411.80;714536;1175;114550;-79
2021/12/27 16:10:13;;;;;;;318.50;76.13;;;;;;;-5.10;64.08;100427.15;714190;1177;113959;-78
2021/12/27 16:25:17;;;;;;;311.07;74.03;;;;;;;-5.27;64.38;100419.82;713952;1199;114718;-80
2021/12/27 16:40:21;;;;;;;245.93;69.68;;;;;;;-5.40;64.94;100434.56;714209;1199;113983;-79
2021/12/27 16:55:24;;;;;;;113.35;35.78;;;;;;;-5.57;65.30;100433.19;715154;1199;113958;-78
2021/12/27 17:10:27;;;;;;;142.18;45.93;;;;;;;-5.63;65.30;100417.95;714387;1199;114094;-80
2021/12/27 17:25:30;;;;;;;94.90;30.30;;;;;;;-5.70;65.39;100406.15;714018;1200;115201;-77
2021/12/27 17:40:33;;;;;;;109.25;35.98;;;;;;;-5.82;65.49;100417.44;714004;1177;113753;-78
2021/12/27 17:55:37;;;;;;;85.13;29.00;;;;;;;-6.03;65.66;100401.68;716915;1200;114929;-77
2021/12/27 18:10:39;;;;;;;138.10;34.33;;;;;;;-6.08;65.70;100400.09;714119;1176;114739;-80
2021/12/27 18:25:42;;;;;;;189.20;50.20;;;;;;;-6.23;65.79;100403.72;714740;1174;113859;-80
2021/12/27 18:40:45;;;;;;;110.20;38.37;;;;;;;-6.26;65.80;100396.13;714467;1177;114344;-78
2021/12/27 18:55:53;;;;;;;145.80;43.90;;;;;;;-6.29;65.76;100412.34;714511;1178;114003;-76
2021/12/27 19:10:56;;;;;;;129.10;37.80;;;;;;;-6.35;65.44;100404.77;714591;1176;113972;-77
2021/12/27 19:26:00;;;;;;;436.00;107.70;;;;;;;-6.35;65.31;100409.88;715629;1200;115570;-78
2021/12/27 19:41:03;;;;;;;360.23;93.10;;;;;;;-6.50;65.18;100403.31;721190;1199;114682;-79
2021/12/27 19:56:06;;;;;;;208.20;48.60;;;;;;;-6.53;65.24;100403.38;716180;1200;115136;-80
2021/12/27 20:11:09;;;;;;;154.50;39.13;;;;;;;-6.67;65.46;100390.81;716741;1173;113966;-82
2021/12/27 20:26:12;;;;;;;200.47;43.07;;;;;;;-6.65;65.73;100408.65;715398;1199;114014;-78
2021/12/27 20:41:15;;;;;;;136.85;32.85;;;;;;;-6.72;66.39;100388.34;715989;1199;115702;-80
2021/12/27 20:56:18;;;;;;;;;;;;;;;-6.70;66.31;100389.15;714881;1177;115791;-77
2021/12/27 21:11:24;;;;;;;133.43;34.68;;;;;;;-6.72;66.81;100370.48;714264;1175;100696;-78
2021/12/27 21:26:27;;;;;;;81.25;24.03;;;;;;;-6.81;67.15;100369.77;714570;1177;113910;-78
2021/12/27 21:41:32;;;;;;;95.60;24.30;;;;;;;-6.72;67.14;100357.72;714891;1177;113923;-78
2021/12/27 21:56:34;;;;;;;72.40;19.75;;;;;;;-6.80;67.38;100328.91;714792;1176;113184;-77
2021/12/27 22:11:37;;;;;;;77.15;21.30;;;;;;;-6.82;67.25;100292.39;714634;1177;113740;-79
2021/12/27 22:27:00;;;;;;;70.93;19.20;;;;;;;-6.89;67.64;100283.99;714232;1186;113631;-79
2021/12/27 22:42:03;;;;;;;78.50;21.33;;;;;;;-6.84;67.29;100276.25;714042;1200;113740;-78
2021/12/27 22:57:05;;;;;;;93.30;20.20;;;;;;;-6.78;66.92;100270.19;714811;1181;113842;-78
2021/12/27 23:12:10;;;;;;;98.88;21.93;;;;;;;-6.73;67.14;100274.38;714489;1199;115547;-78
2021/12/27 23:27:12;;;;;;;43.68;13.48;;;;;;;-6.72;66.89;100275.20;714717;1200;113752;-79
2021/12/27 23:42:16;;;;;;;107.68;24.00;;;;;;;-6.66;66.99;100279.34;714308;1203;113766;-78
2021/12/27 23:57:23;;;;;;;46.97;12.30;;;;;;;-6.65;66.79;100269.14;714481;1201;114008;-77
